createdAt,value
2019-03-11T00:00:03.805Z,87.49
2019-03-11T00:02:34.282Z,87.67
2019-03-11T00:05:04.802Z,87.87
2019-03-11T00:07:35.312Z,88.63
2019-03-11T00:10:06.319Z,88.98
2019-03-11T00:12:36.886Z,89.48
2019-03-11T00:15:07.917Z,89.35
2019-03-11T00:17:38.426Z,88.83
2019-03-11T00:20:09.150Z,89.28
2019-03-11T00:22:39.701Z,88.75
2019-03-11T00:25:10.591Z,88.67
2019-03-11T00:27:41.054Z,89.05
2019-03-11T00:30:12.127Z,88.90
2019-03-11T00:32:42.678Z,88.87
2019-03-11T00:35:13.284Z,88.15
2019-03-11T00:37:43.770Z,87.99
2019-03-11T00:40:14.550Z,88.40
2019-03-11T00:42:45.077Z,88.64
2019-03-11T00:45:15.719Z,88.50
2019-03-11T00:47:46.283Z,88.36
2019-03-11T00:50:16.786Z,88.70
2019-03-11T00:52:47.340Z,88.29
2019-03-11T00:55:17.938Z,87.64
2019-03-11T00:57:48.425Z,87.41
2019-03-11T01:00:29.494Z,87.32
2019-03-11T01:03:00.008Z,87.33
2019-03-11T01:05:30.515Z,86.95
2019-03-11T01:08:01.128Z,87.35
2019-03-11T01:10:31.618Z,87.17
2019-03-11T01:13:02.132Z,87.24
2019-03-11T01:15:32.623Z,87.80
2019-03-11T01:18:03.129Z,87.33
2019-03-11T01:20:33.634Z,87.01
2019-03-11T01:23:04.134Z,87.37
2019-03-11T01:25:34.691Z,87.48
2019-03-11T01:28:05.234Z,88.07
2019-03-11T01:30:35.755Z,88.35
2019-03-11T01:33:06.245Z,88.72
2019-03-11T01:35:36.757Z,89.16
2019-03-11T01:38:07.260Z,89.13
2019-03-11T01:40:37.757Z,89.76
2019-03-11T01:43:08.225Z,89.45
2019-03-11T01:45:38.833Z,89.60
2019-03-11T01:48:09.339Z,90.20
2019-03-11T01:50:39.822Z,90.09
2019-03-11T01:53:10.438Z,89.78
2019-03-11T01:55:40.921Z,90.07
2019-03-11T01:58:11.471Z,90.42
2019-03-11T02:00:42.324Z,90.45
2019-03-11T02:03:12.907Z,90.57
2019-03-11T02:05:43.458Z,90.46
2019-03-11T02:08:13.941Z,90.25
2019-03-11T02:10:44.426Z,90.84
2019-03-11T02:13:14.937Z,91.03
2019-03-11T02:15:45.458Z,90.92
2019-03-11T02:18:15.973Z,90.44
2019-03-11T02:20:46.440Z,90.50
2019-03-11T02:23:16.937Z,90.22
2019-03-11T02:25:47.436Z,90.12
2019-03-11T02:28:18.776Z,90.67
2019-03-11T02:30:49.266Z,90.63
2019-03-11T02:33:19.776Z,90.50
2019-03-11T02:35:50.253Z,90.71
2019-03-11T02:38:20.762Z,90.31
2019-03-11T02:40:51.459Z,90.55
2019-03-11T02:43:21.923Z,90.14
2019-03-11T02:45:52.431Z,89.83
2019-03-11T02:48:22.908Z,89.78
2019-03-11T02:50:53.389Z,89.96
2019-03-11T02:53:23.897Z,89.89
2019-03-11T02:55:54.376Z,90.03
2019-03-11T02:58:24.897Z,90.03
2019-03-11T03:01:24.919Z,89.98
2019-03-11T03:04:02.340Z,90.03
2019-03-11T03:06:32.833Z,90.18
2019-03-11T03:09:03.296Z,90.44
2019-03-11T03:11:33.787Z,90.08
2019-03-11T03:14:04.307Z,90.06
2019-03-11T03:16:34.896Z,90.46
2019-03-11T03:19:05.365Z,90.19
2019-03-11T03:21:35.852Z,90.37
2019-03-11T03:24:06.351Z,90.91
2019-03-11T03:26:36.849Z,90.88
2019-03-11T03:29:07.338Z,91.10
2019-03-11T03:31:37.851Z,91.27
2019-03-11T03:34:08.297Z,91.71
2019-03-11T03:36:38.845Z,92.08
2019-03-11T03:39:09.716Z,92.04
2019-03-11T03:41:40.398Z,92.43
2019-03-11T03:44:10.934Z,92.22
2019-03-11T03:46:41.442Z,92.44
2019-03-11T03:49:11.944Z,92.73
2019-03-11T03:51:42.442Z,93.07
2019-03-11T03:54:12.922Z,93.53
2019-03-11T03:56:43.386Z,93.66
2019-03-11T03:59:13.882Z,93.72
2019-03-11T04:01:44.349Z,93.79
2019-03-11T04:04:14.845Z,93.99
2019-03-11T04:06:45.329Z,94.16
2019-03-11T04:09:15.795Z,94.28
2019-03-11T04:11:46.278Z,94.43
2019-03-11T04:14:16.794Z,94.79
2019-03-11T04:16:47.254Z,94.84
2019-03-11T04:19:17.707Z,94.94
2019-03-11T04:21:48.359Z,95.06
2019-03-11T04:24:18.832Z,95.35
2019-03-11T04:26:55.064Z,95.60
2019-03-11T04:29:25.554Z,95.79
2019-03-11T04:31:56.066Z,95.91
2019-03-11T04:34:26.445Z,96.00
2019-03-11T04:36:56.935Z,96.12
2019-03-11T04:39:27.457Z,96.23
2019-03-11T04:41:57.968Z,96.24
2019-03-11T04:44:28.462Z,96.32
2019-03-11T04:46:58.961Z,96.38
2019-03-11T04:49:29.494Z,96.41
2019-03-11T04:52:00.026Z,96.39
2019-03-11T04:54:30.603Z,96.44
2019-03-11T04:57:01.178Z,96.24
2019-03-11T04:59:31.672Z,96.22
2019-03-11T05:02:02.147Z,96.23
2019-03-11T05:04:32.639Z,96.28
2019-03-11T05:07:03.002Z,96.30
2019-03-11T05:09:33.464Z,96.34
2019-03-11T05:12:04.002Z,96.47
2019-03-11T05:14:34.468Z,96.58
2019-03-11T05:17:04.991Z,96.63
2019-03-11T05:19:35.978Z,96.53
2019-03-11T05:22:06.416Z,96.49
2019-03-11T05:24:36.889Z,96.64
2019-03-11T05:27:07.396Z,96.68
2019-03-11T05:29:37.907Z,96.70
2019-03-11T05:32:08.405Z,96.74
2019-03-11T05:34:38.913Z,96.84
2019-03-11T05:37:09.506Z,96.91
2019-03-11T05:39:39.953Z,96.95
2019-03-11T05:42:10.508Z,96.99
2019-03-11T05:44:40.976Z,97.04
2019-03-11T05:47:11.482Z,97.10
2019-03-11T05:49:41.972Z,97.19
2019-03-11T05:52:12.481Z,97.22
2019-03-11T05:54:42.960Z,97.20
2019-03-11T05:57:13.491Z,97.15
2019-03-11T05:59:43.956Z,97.18
2019-03-11T06:02:14.444Z,97.23
2019-03-11T06:04:44.990Z,97.18
2019-03-11T06:07:15.482Z,97.13
2019-03-11T06:09:45.957Z,97.11
2019-03-11T06:12:16.542Z,97.12
2019-03-11T06:14:47.095Z,97.09
2019-03-11T06:17:17.671Z,97.10
2019-03-11T06:19:49.815Z,97.08
2019-03-11T06:22:23.717Z,97.14
2019-03-11T06:25:44.784Z,97.22
2019-03-11T06:28:15.243Z,97.22
2019-03-11T06:30:45.771Z,97.31
2019-03-11T06:33:16.261Z,97.24
2019-03-11T06:35:46.737Z,97.17
2019-03-11T06:38:17.242Z,96.97
2019-03-11T06:40:47.731Z,96.91
2019-03-11T06:43:18.199Z,96.92
2019-03-11T06:45:48.725Z,96.93
2019-03-11T06:48:19.204Z,96.76
2019-03-11T06:50:49.732Z,96.70
2019-03-11T06:53:20.218Z,96.67
2019-03-11T06:55:50.745Z,96.72
2019-03-11T06:58:21.200Z,96.75
2019-03-11T07:00:51.730Z,96.80
2019-03-11T07:03:22.199Z,96.79
2019-03-11T07:05:52.714Z,96.60
2019-03-11T07:08:23.216Z,96.51
2019-03-11T07:10:53.713Z,96.65
2019-03-11T07:13:24.218Z,96.74
2019-03-11T07:15:54.755Z,96.84
2019-03-11T07:18:25.259Z,96.95
2019-03-11T07:20:55.713Z,97.06
2019-03-11T07:23:26.208Z,97.16
2019-03-11T07:25:56.697Z,97.27
2019-03-11T07:28:27.150Z,97.41
2019-03-11T07:30:57.693Z,97.49
2019-03-11T07:33:28.206Z,97.58
2019-03-11T07:35:58.747Z,97.62
2019-03-11T07:38:29.372Z,97.69
2019-03-11T07:40:59.864Z,97.75
2019-03-11T07:43:30.394Z,97.77
2019-03-11T07:46:01.014Z,97.86
2019-03-11T07:48:31.736Z,97.88
2019-03-11T07:51:02.285Z,97.88
2019-03-11T07:53:32.784Z,97.86
2019-03-11T07:56:03.287Z,97.84
2019-03-11T07:58:33.759Z,97.80
2019-03-11T08:01:04.293Z,97.79
2019-03-11T08:03:34.760Z,97.73
2019-03-11T08:06:05.221Z,97.71
2019-03-11T08:08:35.860Z,97.71
2019-03-11T08:11:06.340Z,97.65
2019-03-11T08:13:36.859Z,97.65
2019-03-11T08:16:07.350Z,97.69
2019-03-11T08:18:37.865Z,97.65
2019-03-11T08:21:08.322Z,97.65
2019-03-11T08:23:38.836Z,97.63
2019-03-11T08:26:09.334Z,97.65
2019-03-11T08:28:39.801Z,97.61
2019-03-11T08:31:11.280Z,97.67
2019-03-11T08:33:43.527Z,97.70
2019-03-11T08:36:13.957Z,97.72
2019-03-11T08:38:44.563Z,97.71
2019-03-11T08:43:44.229Z,97.75
2019-03-11T08:46:14.779Z,97.76
2019-03-11T08:48:45.312Z,97.74
2019-03-11T08:51:15.861Z,97.72
2019-03-11T08:53:46.455Z,97.67
2019-03-11T08:56:16.937Z,97.62
2019-03-11T08:58:47.532Z,97.50
2019-03-11T09:01:18.641Z,97.35
2019-03-11T09:03:49.228Z,97.32
2019-03-11T09:06:19.686Z,97.30
2019-03-11T09:08:50.366Z,97.26
2019-03-11T09:11:20.857Z,97.20
2019-03-11T09:13:51.364Z,97.00
2019-03-11T09:16:21.908Z,96.71
2019-03-11T09:18:52.516Z,96.60
2019-03-11T09:21:23.065Z,96.63
2019-03-11T09:23:53.631Z,96.74
2019-03-11T09:26:24.163Z,96.70
2019-03-11T09:28:54.810Z,96.80
2019-03-11T09:31:25.427Z,96.62
2019-03-11T09:33:56.034Z,96.56
2019-03-11T09:36:26.626Z,96.34
2019-03-11T09:38:57.302Z,96.23
2019-03-11T09:41:27.846Z,96.15
2019-03-11T09:43:58.420Z,96.28
2019-03-11T09:46:29.016Z,96.38
2019-03-11T09:48:59.602Z,96.36
2019-03-11T09:51:30.238Z,96.12
2019-03-11T09:54:00.851Z,96.24
2019-03-11T09:56:31.452Z,96.19
2019-03-11T09:59:02.432Z,96.12
2019-03-11T10:01:33.553Z,95.91
2019-03-11T10:04:04.090Z,95.47
2019-03-11T10:06:34.605Z,94.91
2019-03-11T10:09:06.272Z,94.80
2019-03-11T10:11:36.857Z,95.01
2019-03-11T10:14:07.385Z,95.05
2019-03-11T10:16:37.966Z,94.91
2019-03-11T10:19:08.493Z,94.57
2019-03-11T10:21:39.007Z,94.84
2019-03-11T10:24:09.588Z,94.62
2019-03-11T10:26:40.129Z,94.49
2019-03-11T10:29:39.156Z,94.38
2019-03-11T10:31:59.567Z,94.52
2019-03-11T10:34:30.089Z,94.82
2019-03-11T10:37:00.684Z,94.63
2019-03-11T10:40:05.526Z,94.58
2019-03-11T10:42:36.047Z,94.88
2019-03-11T10:45:07.196Z,94.42
2019-03-11T10:47:37.872Z,94.41
2019-03-11T10:50:10.159Z,94.45
2019-03-11T10:52:41.560Z,94.75
2019-03-11T10:55:13.936Z,94.69
2019-03-11T10:57:44.524Z,94.93
2019-03-11T11:00:19.239Z,94.58
2019-03-11T11:02:49.950Z,94.59
2019-03-11T11:05:20.687Z,94.65
2019-03-11T11:07:51.237Z,94.68
2019-03-11T11:10:22.282Z,94.57
2019-03-11T11:12:53.007Z,94.47
2019-03-11T11:15:24.258Z,93.67
2019-03-11T11:17:55.446Z,93.38
2019-03-11T11:20:26.506Z,93.07
2019-03-11T11:22:57.748Z,92.80
2019-03-11T11:25:28.360Z,93.00
2019-03-11T11:27:59.019Z,93.09
2019-03-11T11:30:29.608Z,93.04
2019-03-11T11:33:00.263Z,93.17
2019-03-11T11:35:30.784Z,93.54
2019-03-11T11:38:01.367Z,92.24
2019-03-11T11:40:31.964Z,92.17
2019-03-11T11:43:02.624Z,92.82
2019-03-11T11:45:33.470Z,93.33
2019-03-11T11:48:03.979Z,94.42
2019-03-11T11:50:34.521Z,94.64
2019-03-11T11:53:05.019Z,94.67
2019-03-11T11:55:35.599Z,93.91
2019-03-11T11:58:06.093Z,94.27
2019-03-11T12:00:38.056Z,94.32
2019-03-11T12:03:08.518Z,93.94
2019-03-11T12:05:39.091Z,93.47
2019-03-11T12:08:09.673Z,93.47
2019-03-11T12:10:40.155Z,93.57
2019-03-11T12:13:10.688Z,92.68
2019-03-11T12:15:41.232Z,92.74
2019-03-11T12:18:11.860Z,91.65
2019-03-11T12:20:42.414Z,92.06
2019-03-11T12:23:13.011Z,91.54
2019-03-11T12:25:43.467Z,90.45
2019-03-11T12:28:13.988Z,91.14
2019-03-11T12:30:44.670Z,90.56
2019-03-11T12:33:15.278Z,90.98
2019-03-11T12:35:45.817Z,89.65
2019-03-11T12:38:16.484Z,88.66
2019-03-11T12:40:47.004Z,87.55
2019-03-11T12:43:17.585Z,89.26
2019-03-11T12:45:48.280Z,88.63
2019-03-11T12:48:18.808Z,88.96
2019-03-11T12:50:49.310Z,89.22
2019-03-11T12:53:19.871Z,89.87
2019-03-11T12:55:50.322Z,89.57
2019-03-11T12:58:20.822Z,88.96
2019-03-11T13:00:56.931Z,89.58
2019-03-11T13:03:44.425Z,88.81
2019-03-11T13:06:15.084Z,88.42
2019-03-11T13:08:48.380Z,90.60
2019-03-11T13:11:18.967Z,89.90
2019-03-11T13:13:49.467Z,87.20
2019-03-11T13:16:19.931Z,82.25
2019-03-11T13:18:53.780Z,81.32
2019-03-11T13:21:33.434Z,79.73
2019-03-11T13:24:04.071Z,80.08
2019-03-11T13:26:34.567Z,83.43
2019-03-11T13:29:05.115Z,84.10
2019-03-11T13:31:35.703Z,84.80
2019-03-11T13:34:06.249Z,86.43
2019-03-11T13:36:36.791Z,85.74
2019-03-11T13:39:09.535Z,86.57
2019-03-11T13:41:40.016Z,85.04
2019-03-11T13:44:10.599Z,83.04
2019-03-11T13:46:41.086Z,82.40
2019-03-11T13:49:11.579Z,84.24
2019-03-11T13:51:42.212Z,85.10
2019-03-11T13:54:12.706Z,86.73
2019-03-11T13:56:56.679Z,83.99
2019-03-11T13:59:35.102Z,78.80
2019-03-11T14:02:01.358Z,76.99
2019-03-11T14:04:31.912Z,77.32
2019-03-11T14:07:02.500Z,72.66
2019-03-11T14:09:32.988Z,74.48
2019-03-11T14:12:03.522Z,75.73
2019-03-11T14:14:34.066Z,79.21
2019-03-11T14:17:04.561Z,78.91
2019-03-11T14:19:35.055Z,81.71
2019-03-11T14:22:05.643Z,84.12
2019-03-11T14:24:36.101Z,85.02
2019-03-11T14:27:06.627Z,84.61
2019-03-11T14:29:37.178Z,86.82
2019-03-11T14:32:08.248Z,86.26
2019-03-11T14:34:38.828Z,86.41
2019-03-11T14:37:09.408Z,85.75
2019-03-11T14:39:39.970Z,86.05
2019-03-11T14:58:28.775Z,85.77
2019-03-11T15:00:50.534Z,85.12
2019-03-11T15:03:21.078Z,84.83
2019-03-11T15:05:53.536Z,84.21
2019-03-11T15:08:23.913Z,79.79
2019-03-11T15:10:56.964Z,74.73
2019-03-11T15:13:27.629Z,74.81
2019-03-11T15:15:58.132Z,74.65
2019-03-11T15:18:28.735Z,70.27
2019-03-11T15:20:59.300Z,73.38
2019-03-11T15:23:29.821Z,76.58
2019-03-11T15:26:00.379Z,78.84
2019-03-11T15:28:30.932Z,82.21
2019-03-11T15:31:10.159Z,84.75
2019-03-11T15:33:33.786Z,85.44
2019-03-11T15:36:04.318Z,87.42
2019-03-11T15:38:34.939Z,88.69
2019-03-11T15:41:05.534Z,89.92
2019-03-11T15:43:36.036Z,90.44
2019-03-11T15:46:06.597Z,92.07
2019-03-11T15:48:37.181Z,92.68
2019-03-11T15:51:07.828Z,92.74
2019-03-11T15:53:38.474Z,91.83
2019-03-11T15:56:09.010Z,92.74
2019-03-11T15:58:39.523Z,93.18
2019-03-11T16:01:10.004Z,93.60
2019-03-11T16:03:40.509Z,94.24
2019-03-11T16:06:10.980Z,94.49
2019-03-11T16:08:41.500Z,93.91
2019-03-11T16:11:11.995Z,94.16
2019-03-11T16:13:42.525Z,94.17
2019-03-11T16:16:12.998Z,94.41
2019-03-11T16:18:43.518Z,94.81
2019-03-11T16:21:14.057Z,95.14
2019-03-11T16:23:44.592Z,95.50
2019-03-11T16:26:15.182Z,95.53
2019-03-11T16:28:48.391Z,95.52
2019-03-11T16:31:17.895Z,95.58
2019-03-11T16:33:48.570Z,95.54
2019-03-11T16:36:19.055Z,95.76
2019-03-11T16:38:49.575Z,95.88
2019-03-11T16:41:20.151Z,95.97
2019-03-11T16:43:50.688Z,96.14
2019-03-11T16:46:21.189Z,96.13
2019-03-11T16:48:51.707Z,96.28
2019-03-11T16:51:22.219Z,96.30
2019-03-11T16:53:52.719Z,96.30
2019-03-11T16:56:23.233Z,96.44
2019-03-11T16:58:53.774Z,96.49
2019-03-11T17:01:24.417Z,96.50
2019-03-11T17:03:54.975Z,96.43
2019-03-11T17:06:25.439Z,96.55
2019-03-11T17:08:55.979Z,96.63
2019-03-11T17:11:26.555Z,96.71
2019-03-11T17:13:57.094Z,96.71
2019-03-11T17:16:27.592Z,96.64
2019-03-11T17:18:58.178Z,96.62
2019-03-11T17:21:28.689Z,96.34
2019-03-11T17:23:59.187Z,96.37
2019-03-11T17:26:29.704Z,96.40
2019-03-11T17:29:00.200Z,96.44
2019-03-11T17:31:30.687Z,96.57
2019-03-11T17:34:01.214Z,96.56
2019-03-11T17:36:31.667Z,96.63
2019-03-11T17:39:04.416Z,96.75
2019-03-11T17:41:34.964Z,96.80
2019-03-11T17:44:05.523Z,96.92
2019-03-11T17:46:36.040Z,96.91
2019-03-11T17:49:06.602Z,97.07
2019-03-11T17:51:37.098Z,97.09
2019-03-11T17:54:07.617Z,97.20
2019-03-11T17:56:38.146Z,97.29
2019-03-11T17:59:08.646Z,97.32
2019-03-11T18:01:39.122Z,97.41
2019-03-11T18:04:09.648Z,97.48
2019-03-11T18:06:40.140Z,97.51
2019-03-11T18:09:10.608Z,97.54
2019-03-11T18:11:41.158Z,97.57
2019-03-11T18:14:11.649Z,97.62
2019-03-11T18:16:42.131Z,97.67
2019-03-11T18:19:12.701Z,97.72
2019-03-11T18:21:43.198Z,97.73
2019-03-11T18:24:13.714Z,97.78
2019-03-11T18:26:44.218Z,97.82
2019-03-11T18:29:14.733Z,97.81
2019-03-11T18:31:45.981Z,97.83
2019-03-11T18:34:16.657Z,97.87
2019-03-11T18:36:47.193Z,97.89
2019-03-11T18:39:19.255Z,97.91
2019-03-11T18:41:50.207Z,97.86
2019-03-11T18:44:20.741Z,97.85
2019-03-11T18:46:51.258Z,97.75
2019-03-11T18:49:21.904Z,97.74
2019-03-11T18:51:52.402Z,97.74
2019-03-11T18:54:23.051Z,97.67
2019-03-11T18:56:53.800Z,97.66
2019-03-11T18:59:24.256Z,97.63
2019-03-11T19:01:54.815Z,97.64
2019-03-11T19:04:25.424Z,97.67
2019-03-11T19:06:55.915Z,97.68
2019-03-11T19:09:26.370Z,97.70
2019-03-11T19:11:56.911Z,97.75
2019-03-11T19:14:27.380Z,97.78
2019-03-11T19:16:57.943Z,97.79
2019-03-11T19:19:28.428Z,97.78
2019-03-11T19:21:58.974Z,97.81
2019-03-11T19:24:29.484Z,97.79
2019-03-11T19:27:00.007Z,97.81
2019-03-11T19:29:30.485Z,97.81
2019-03-11T19:32:01.017Z,97.84
2019-03-11T19:34:31.523Z,97.85
2019-03-11T19:37:01.970Z,97.86
2019-03-11T19:39:32.485Z,97.88
2019-03-11T19:42:03.065Z,97.90
2019-03-11T19:44:33.593Z,97.89
2019-03-11T19:47:04.064Z,97.91
2019-03-11T19:49:34.585Z,97.91
2019-03-11T19:52:05.062Z,97.90
2019-03-11T19:54:35.538Z,97.91
2019-03-11T19:57:06.095Z,97.90
2019-03-11T19:59:36.583Z,97.89
2019-03-11T20:02:07.211Z,97.89
2019-03-11T20:04:37.740Z,97.89
2019-03-11T20:07:08.241Z,97.89
2019-03-11T20:09:38.711Z,97.86
2019-03-11T20:12:09.210Z,97.87
2019-03-11T20:14:39.692Z,97.89
2019-03-11T20:17:10.225Z,97.92
2019-03-11T20:19:40.735Z,97.92
2019-03-11T20:22:11.296Z,97.89
2019-03-11T20:24:41.849Z,97.87
2019-03-11T20:27:12.397Z,97.84
2019-03-11T20:29:42.889Z,97.85
2019-03-11T20:32:13.399Z,97.85
2019-03-11T20:34:44.227Z,97.80
2019-03-11T20:37:14.731Z,97.72
2019-03-11T20:39:45.186Z,97.66
2019-03-11T20:42:15.731Z,97.64
2019-03-11T20:44:46.433Z,97.60
2019-03-11T20:47:16.921Z,97.34
2019-03-11T20:49:47.423Z,97.17
2019-03-11T20:52:18.062Z,97.13
2019-03-11T20:54:48.741Z,97.12
2019-03-11T20:57:19.236Z,97.12
2019-03-11T20:59:49.761Z,97.09
2019-03-11T21:02:20.205Z,97.03
2019-03-11T21:04:50.813Z,97.01
2019-03-11T21:07:21.445Z,96.98
2019-03-11T21:09:52.087Z,97.00
2019-03-11T21:12:23.275Z,97.03
2019-03-11T21:14:53.806Z,96.98
2019-03-11T21:17:26.979Z,96.97
2019-03-11T21:19:56.531Z,96.92
2019-03-11T21:22:27.096Z,96.83
2019-03-11T21:24:59.962Z,96.76
2019-03-11T21:27:29.815Z,96.76
2019-03-11T21:30:00.429Z,96.64
2019-03-11T21:32:32.142Z,96.64
2019-03-11T21:35:02.693Z,96.74
2019-03-11T21:37:33.278Z,96.81
2019-03-11T21:40:03.979Z,96.89
2019-03-11T21:42:37.598Z,96.89
2019-03-11T21:45:07.738Z,96.95
2019-03-11T21:47:38.202Z,96.99
2019-03-11T21:50:11.431Z,96.93
2019-03-11T21:52:41.964Z,96.98
2019-03-11T21:55:12.482Z,96.93
2019-03-11T21:57:43.007Z,96.91
2019-03-11T22:00:17.259Z,96.92
2019-03-11T22:02:47.809Z,96.86
2019-03-11T22:05:18.303Z,96.82
2019-03-11T22:07:48.830Z,96.87
2019-03-11T22:10:19.465Z,96.89
2019-03-11T22:12:50.062Z,96.96
2019-03-11T22:15:20.665Z,97.04
2019-03-11T22:17:51.162Z,97.07
2019-03-11T22:20:21.649Z,97.11
2019-03-11T22:22:52.231Z,97.15
2019-03-11T22:25:22.750Z,97.20
2019-03-11T22:27:53.234Z,97.20
2019-03-11T22:30:23.734Z,97.23
2019-03-11T22:32:54.296Z,97.26
2019-03-11T22:35:24.751Z,97.31
2019-03-11T22:37:55.234Z,97.37
2019-03-11T22:40:25.736Z,97.38
2019-03-11T22:42:56.259Z,97.38
2019-03-11T22:45:26.715Z,97.39
2019-03-11T22:47:57.263Z,97.45
2019-03-11T22:50:27.717Z,97.41
2019-03-11T22:52:58.179Z,97.36
2019-03-11T22:55:28.795Z,97.33
2019-03-11T22:57:59.256Z,97.28
2019-03-11T23:00:56.143Z,97.27
2019-03-11T23:03:27.174Z,97.31
2019-03-11T23:05:58.661Z,97.41
2019-03-11T23:08:29.328Z,97.42
2019-03-11T23:10:59.845Z,97.44
2019-03-11T23:13:30.319Z,97.45
2019-03-11T23:16:00.887Z,97.47
2019-03-11T23:18:31.390Z,97.47
2019-03-11T23:21:01.851Z,97.54
2019-03-11T23:23:32.386Z,97.52
2019-03-11T23:26:02.877Z,97.59
2019-03-11T23:28:33.264Z,97.61
2019-03-11T23:31:03.845Z,97.65
2019-03-11T23:33:34.350Z,97.70
2019-03-11T23:36:07.293Z,97.75
2019-03-11T23:38:36.985Z,97.79
2019-03-11T23:41:07.493Z,97.80
2019-03-11T23:43:37.877Z,97.87
2019-03-11T23:46:08.370Z,97.82
2019-03-11T23:48:38.933Z,97.84
2019-03-11T23:51:09.432Z,97.85
2019-03-11T23:53:39.924Z,97.88
2019-03-11T23:56:10.430Z,97.87
2019-03-11T23:58:40.869Z,97.86
